Time;durP1;ratioP1;P1;durP2;ratioP2;P2;SDS_P1;SDS_P2;PMS_P1;PMS_P2;Temp;Humidity;BMP_temperature;BMP_pressure;BME280_temperature;BME280_humidity;BME280_pressure;Samples;Min_cycle;Max_cycle;Signal;HPM_P1;HPM_P2
2024/04/18 00:08:56;;;;;;;;;;;4.40;99.90;;;;;;22851712;25;20307;-77
2024/04/18 00:19:00;;;;;;;;;;;4.50;99.90;;;;;;22857404;25;19928;-76
2024/04/18 00:29:00;;;;;;;;;;;4.50;99.90;;;;;;22841245;25;19927;-77
2024/04/18 00:39:01;;;;;;;;;;;4.40;99.90;;;;;;22863162;26;19955;-77
2024/04/18 00:49:01;;;;;;;;;;;4.30;99.90;;;;;;22864698;25;20362;-76
2024/04/18 00:59:02;;;;;;;;;;;4.30;99.90;;;;;;22771707;25;19934;-77
2024/04/18 01:09:08;;;;;;;;;;;4.40;99.90;;;;;;22739998;26;19944;-77
2024/04/18 01:19:12;;;;;;;;;;;4.10;99.90;;;;;;22723724;26;19928;-77
2024/04/18 01:29:12;;;;;;;;;;;4.10;99.90;;;;;;22723676;26;19935;-77
2024/04/18 01:39:33;;;;;;;;;;;4.10;99.90;;;;;;22697172;26;19935;-77
2024/04/18 01:49:40;;;;;;;;;;;4.00;99.90;;;;;;22721829;26;19928;-77
2024/04/18 01:59:40;;;;;;;;;;;3.90;99.90;;;;;;22723420;26;19928;-77
2024/04/18 02:09:41;;;;;;;;;;;3.90;99.90;;;;;;22737029;26;19938;-77
2024/04/18 02:19:59;;;;;;;;;;;3.70;99.90;;;;;;22724305;26;19977;-77
2024/04/18 02:30:15;;;;;;;;;;;3.70;99.90;;;;;;22726060;26;19928;-77
2024/04/18 02:40:16;;;;;;;;;;;3.70;99.90;;;;;;22720875;26;19932;-77
2024/04/18 02:50:33;;;;;;;;;;;3.40;99.90;;;;;;22705536;26;19928;-77
2024/04/18 03:00:37;;;;;;;;;;;3.30;99.90;;;;;;22717538;26;19935;-76
2024/04/18 03:10:49;;;;;;;;;;;3.20;99.90;;;;;;22715495;26;20220;-76
2024/04/18 03:21:08;;;;;;;;;;;3.20;99.90;;;;;;22722019;26;19928;-76
2024/04/18 03:31:15;;;;;;;;;;;3.10;99.90;;;;;;22718554;26;19936;-76
2024/04/18 03:41:17;;;;;;;;;;;3.10;99.90;;;;;;22697567;26;20363;-76
2024/04/18 03:51:38;;;;;;;;;;;3.10;99.90;;;;;;22697712;26;20324;-76
2024/04/18 04:01:57;;;;;;;;;;;3.00;99.90;;;;;;22714376;26;19940;-76
2024/04/18 04:11:58;;;;;;;;;;;2.90;99.90;;;;;;22705096;26;19995;-76
2024/04/18 04:21:58;;;;;;;;;;;2.80;99.90;;;;;;22721537;26;19928;-76
2024/04/18 04:31:59;;;;;;;;;;;2.80;99.90;;;;;;22713565;26;19936;-76
2024/04/18 04:42:00;;;;;;;;;;;2.80;99.90;;;;;;22705674;26;19935;-76
2024/04/18 04:52:01;;;;;;;;;;;2.80;99.90;;;;;;22706633;26;19928;-76
2024/04/18 05:02:14;;;;;;;;;;;2.90;99.90;;;;;;22710970;26;19939;-76
2024/04/18 05:12:23;;;;;;;;;;;2.90;99.90;;;;;;22722469;26;20275;-77
2024/04/18 05:22:24;;;;;;;;;;;2.90;99.90;;;;;;22722161;26;19935;-77
2024/04/18 05:32:26;;;;;;;;;;;2.90;99.90;;;;;;22721423;26;19927;-77
2024/04/18 05:42:45;;;;;;;;;;;2.70;99.90;;;;;;22711159;26;19935;-76
2024/04/18 05:52:45;;;;;;;;;;;2.30;99.90;;;;;;22673552;26;20335;-77
2024/04/18 06:02:54;;;;;;;;;;;2.20;99.90;;;;;;22696849;26;19952;-75
2024/04/18 06:12:55;;;;;;;;;;;2.30;99.90;;;;;;22717440;26;19969;-77
2024/04/18 06:22:55;;;;;;;;;;;2.40;99.90;;;;;;22721595;26;20363;-77
2024/04/18 06:32:59;;;;;;;;;;;2.60;99.90;;;;;;22721493;26;19928;-78
2024/04/18 06:43:00;;;;;;;;;;;2.90;99.90;;;;;;22718012;26;19935;-77
2024/04/18 06:53:00;;;;;;;;;;;3.30;99.90;;;;;;22717608;26;20274;-77
2024/04/18 07:03:01;;;;;;;;;;;3.60;99.90;;;;;;22704393;26;20028;-77
2024/04/18 07:13:20;;;;;;;;;;;3.80;99.90;;;;;;22716874;26;20267;-78
2024/04/18 07:23:30;;;;;;;;;;;4.00;99.90;;;;;;22702251;26;19975;-77
2024/04/18 07:33:37;;;;;;;;;;;4.40;99.90;;;;;;22721053;26;19928;-77
2024/04/18 07:43:49;;;;;;;;;;;4.40;99.90;;;;;;22706626;26;19928;-76
2024/04/18 07:53:50;;;;;;;;;;;4.10;99.90;;;;;;22715631;26;19935;-76
2024/04/18 08:03:51;;;;;;;;;;;4.50;99.90;;;;;;22715264;26;19952;-76
2024/04/18 08:13:51;;;;;;;;;;;4.70;99.90;;;;;;22715727;26;20374;-76
2024/04/18 08:23:52;;;;;;;;;;;4.50;99.90;;;;;;22711513;26;19935;-76
2024/04/18 08:33:53;;;;;;;;;;;4.40;99.90;;;;;;22699348;26;19928;-75
2024/04/18 08:43:55;;;;;;;;;;;4.20;99.90;;;;;;22732879;26;19928;-76
2024/04/18 08:53:56;;;;;;;;;;;4.20;99.90;;;;;;22727588;26;19936;-76
2024/04/18 09:03:57;;;;;;;;;;;4.30;99.90;;;;;;22725683;26;19997;-76
2024/04/18 09:13:58;;;;;;;;;;;4.60;99.90;;;;;;22726215;26;19928;-76
2024/04/18 09:23:58;;;;;;;;;;;4.80;99.90;;;;;;22755635;25;19932;-77
2024/04/18 09:33:59;;;;;;;;;;;5.00;99.90;;;;;;22733573;26;19935;-76
2024/04/18 09:44:17;;;;;;;;;;;5.10;99.90;;;;;;22721229;26;19992;-76
2024/04/18 09:54:18;;;;;;;;;;;5.40;99.90;;;;;;22720171;26;19935;-76
2024/04/18 10:04:20;;;;;;;;;;;5.60;99.90;;;;;;22711982;26;19936;-76
2024/04/18 10:14:21;;;;;;;;;;;5.90;99.90;;;;;;22722438;26;19939;-76
2024/04/18 10:24:23;;;;;;;;;;;6.30;99.90;;;;;;22731552;26;19936;-76
2024/04/18 10:34:24;;;;;;;;;;;6.30;99.90;;;;;;22719588;26;19928;-76
2024/04/18 10:44:25;;;;;;;;;;;6.50;99.90;;;;;;22719206;26;19928;-76
2024/04/18 10:54:27;;;;;;;;;;;6.70;99.90;;;;;;22739582;26;20275;-75
2024/04/18 11:04:27;;;;;;;;;;;6.90;99.90;;;;;;22717416;26;20363;-75
2024/04/18 11:14:28;;;;;;;;;;;7.20;99.90;;;;;;22683825;26;19938;-76
2024/04/18 11:24:29;;;;;;;;;;;8.00;99.90;;;;;;22701199;26;19935;-75
2024/04/18 11:34:30;;;;;;;;;;;8.70;99.90;;;;;;22669893;26;20381;-75
2024/04/18 11:44:30;;;;;;;;;;;8.10;99.90;;;;;;22714173;26;20359;-75
2024/04/18 11:54:32;;;;;;;;;;;9.90;99.90;;;;;;22723394;26;19935;-75
2024/04/18 12:04:33;;;;;;;;;;;11.10;99.90;;;;;;22712940;26;20435;-75
2024/04/18 12:14:49;;;;;;;;;;;11.30;99.90;;;;;;22729958;25;19927;-77
2024/04/18 12:25:01;;;;;;;;;;;10.40;99.90;;;;;;22725926;26;19938;-75
2024/04/18 12:35:02;;;;;;;;;;;8.50;99.90;;;;;;22709883;26;19928;-77
2024/04/18 12:45:03;;;;;;;;;;;8.10;99.90;;;;;;22736078;26;20271;-77
2024/04/18 12:55:04;;;;;;;;;;;8.60;99.90;;;;;;22701849;26;19929;-77
2024/04/18 13:05:04;;;;;;;;;;;10.70;99.90;;;;;;22594938;26;19957;-76
2024/04/18 13:15:05;;;;;;;;;;;10.70;99.90;;;;;;22650423;26;19935;-80
2024/04/18 13:25:06;;;;;;;;;;;10.20;99.90;;;;;;22673670;26;19928;-83
2024/04/18 13:35:07;;;;;;;;;;;11.80;99.90;;;;;;22670471;26;19928;-75
2024/04/18 13:45:08;;;;;;;;;;;11.10;99.90;;;;;;22715348;26;19928;-75
2024/04/18 13:55:27;;;;;;;;;;;11.50;99.90;;;;;;22719836;26;20034;-76
2024/04/18 14:05:28;;;;;;;;;;;13.30;99.90;;;;;;22721013;26;19963;-75
2024/04/18 14:15:37;;;;;;;;;;;12.40;99.90;;;;;;22713906;26;19928;-75
2024/04/18 14:25:56;;;;;;;;;;;11.80;99.90;;;;;;22717969;26;19939;-75
2024/04/18 14:35:59;;;;;;;;;;;12.80;99.90;;;;;;22724854;26;20053;-75
2024/04/18 14:45:59;;;;;;;;;;;11.30;99.90;;;;;;22721331;26;20386;-75
2024/04/18 14:56:19;;;;;;;;;;;10.20;99.90;;;;;;22704844;25;19934;-73
2024/04/18 15:06:34;;;;;;;;;;;10.20;99.90;;;;;;22669881;26;20359;-76
2024/04/18 15:16:41;;;;;;;;;;;10.70;99.90;;;;;;22700141;26;19927;-75
2024/04/18 15:26:42;;;;;;;;;;;10.10;99.90;;;;;;22711856;26;19936;-75
2024/04/18 15:36:42;;;;;;;;;;;8.80;99.90;;;;;;22712684;26;20703;-75
2024/04/18 15:47:00;;;;;;;;;;;7.40;99.90;;;;;;22708988;26;19939;-76
2024/04/18 15:57:18;;;;;;;;;;;6.60;99.90;;;;;;22678326;26;20395;-76
2024/04/18 16:07:35;;;;;;;;;;;6.50;99.90;;;;;;22721306;26;19935;-76
2024/04/18 16:17:54;;;;;;;;;;;7.50;99.90;;;;;;22712175;26;19927;-76
2024/04/18 16:27:55;;;;;;;;;;;7.20;99.90;;;;;;22711432;26;19960;-76
2024/04/18 16:37:56;;;;;;;;;;;7.90;99.90;;;;;;22713712;26;19936;-76
2024/04/18 16:47:57;;;;;;;;;;;8.10;99.90;;;;;;22668195;26;19997;-76
2024/04/18 16:57:58;;;;;;;;;;;8.10;99.90;;;;;;22709397;26;19936;-75
2024/04/18 17:07:59;;;;;;;;;;;8.10;99.90;;;;;;22703392;26;20008;-74
2024/04/18 17:18:00;;;;;;;;;;;7.90;99.90;;;;;;22681202;26;19928;-75
2024/04/18 17:28:00;;;;;;;;;;;7.80;99.90;;;;;;22748000;26;19928;-75
2024/04/18 17:38:01;;;;;;;;;;;7.30;99.90;;;;;;22749194;26;19935;-74
2024/04/18 17:48:22;;;;;;;;;;;6.90;99.90;;;;;;22723063;26;19935;-74
2024/04/18 17:58:22;;;;;;;;;;;6.10;99.90;;;;;;22728890;26;20275;-74
2024/04/18 18:08:23;;;;;;;;;;;5.90;99.90;;;;;;22719996;26;20368;-75
2024/04/18 18:18:24;;;;;;;;;;;5.80;99.90;;;;;;22711403;26;20301;-74
2024/04/18 18:28:25;;;;;;;;;;;5.80;99.90;;;;;;22718490;26;19973;-74
2024/04/18 18:38:35;;;;;;;;;;;5.60;99.90;;;;;;22725881;26;20327;-74
2024/04/18 18:48:36;;;;;;;;;;;5.60;99.90;;;;;;22733947;26;19942;-74
2024/04/18 18:58:37;;;;;;;;;;;5.50;99.90;;;;;;22731701;26;20354;-75
2024/04/18 19:08:37;;;;;;;;;;;5.70;99.90;;;;;;22713854;26;20001;-74
2024/04/18 19:18:39;;;;;;;;;;;6.00;99.90;;;;;;22717376;26;19992;-75
2024/04/18 19:28:41;;;;;;;;;;;5.80;99.90;;;;;;22692475;26;19939;-75
2024/04/18 19:38:44;;;;;;;;;;;5.20;99.90;;;;;;22719862;26;19959;-74
2024/04/18 19:49:12;;;;;;;;;;;5.00;99.90;;;;;;22684447;26;19977;-74
2024/04/18 19:59:27;;;;;;;;;;;4.30;99.90;;;;;;22713359;26;19927;-74
2024/04/18 20:09:34;;;;;;;;;;;3.90;99.90;;;;;;22723090;26;19935;-73
2024/04/18 20:19:35;;;;;;;;;;;3.70;99.90;;;;;;22694095;26;20000;-75
2024/04/18 20:29:35;;;;;;;;;;;3.50;99.90;;;;;;22695484;25;19928;-75
2024/04/18 20:39:54;;;;;;;;;;;3.80;99.90;;;;;;22711193;26;19927;-75
2024/04/18 20:49:55;;;;;;;;;;;3.20;99.90;;;;;;22723291;26;19934;-75
2024/04/18 20:59:55;;;;;;;;;;;3.40;99.90;;;;;;22720103;26;19931;-75
2024/04/18 21:09:56;;;;;;;;;;;3.10;99.90;;;;;;22718982;26;19928;-75
2024/04/18 21:19:56;;;;;;;;;;;2.70;99.90;;;;;;22719395;26;19936;-75
2024/04/18 21:29:57;;;;;;;;;;;2.80;99.90;;;;;;22716598;26;19928;-74
2024/04/18 21:39:58;;;;;;;;;;;2.90;99.90;;;;;;22677316;26;19935;-75
2024/04/18 21:49:59;;;;;;;;;;;2.90;99.90;;;;;;22748627;26;19927;-75
2024/04/18 21:59:59;;;;;;;;;;;3.10;99.90;;;;;;22751246;26;19936;-75
2024/04/18 22:10:23;;;;;;;;;;;3.30;99.90;;;;;;22776660;26;19996;-75
2024/04/18 22:20:23;;;;;;;;;;;2.90;99.90;;;;;;22723471;26;20244;-74
2024/04/18 22:30:52;;;;;;;;;;;2.80;99.90;;;;;;22721762;26;19964;-73
2024/04/18 22:40:53;;;;;;;;;;;2.50;99.90;;;;;;22714263;26;20289;-74
2024/04/18 22:50:54;;;;;;;;;;;2.30;99.90;;;;;;22719146;26;19935;-75
2024/04/18 23:00:55;;;;;;;;;;;2.10;99.90;;;;;;22735529;26;19978;-75
2024/04/18 23:10:55;;;;;;;;;;;2.10;99.90;;;;;;22723480;26;19934;-74
2024/04/18 23:20:56;;;;;;;;;;;1.90;99.90;;;;;;22712642;26;19931;-75
2024/04/18 23:31:07;;;;;;;;;;;2.10;99.90;;;;;;22713684;26;20340;-74
2024/04/18 23:41:08;;;;;;;;;;;1.90;99.90;;;;;;22712945;26;19974;-74
2024/04/18 23:51:09;;;;;;;;;;;1.90;99.90;;;;;;22712804;26;20256;-74
